• Join FlightAware (Why Join?)
  • Login
  • US Flag 
09:47PM EDT


 

Airport Tracker/Info


-or-


 

Live Flight TrackerFlight Track Log ✈ JTA65 ✈ 22-Apr-2013 ✈ RJFF / FUK - ROAH / OKA

Flight Track Log - Related Links

Times and Time Zones

All times are in EDT time to prevent confusion due to time zone crossing. See the JTA65 flight status page for this flight to view local times or setup timezone preferences in your user account.

Time Position Orientation Groundspeed Altitude Reporting Facility
EDT Latitude Longitude Course Direction KTS MPH feet Rate Location/Type
07:24AM 33.2712 130.3209 199° South  Level Estimated
07:25AM 33.1661 130.2780 199° South  Level Estimated
07:26AM 33.0609 130.2352 199° South  Level Estimated
07:27AM 32.9557 130.1925 199° South  Level Estimated
07:28AM 32.8505 130.1499 199° South  Level Estimated
07:29AM 32.7453 130.1074 199° South  Level Estimated
07:30AM 32.6400 130.0650 199° South  Level Estimated
07:31AM 32.5348 130.0228 199° South  Level Estimated
07:32AM 32.4295 129.9806 199° South  Level Estimated
07:33AM 32.3242 129.9385 199° South  Level Estimated
07:34AM 32.2190 129.8965 199° South  Level Estimated
07:35AM 32.1137 129.8546 199° South  Level Estimated
07:36AM 32.0083 129.8128 199° South  Level Estimated
07:37AM 31.9030 129.7711 199° South  Level Estimated
07:38AM 31.7976 129.7295 199° South  Level Estimated
07:39AM 31.6923 129.6880 199° South  Level Estimated
07:40AM 31.5869 129.6465 199° South  Level Estimated
07:41AM 31.4784 129.6040 198° South  Level Estimated
07:42AM 31.3699 129.5616 198° South  Level Estimated
07:43AM 31.2614 129.5192 198° South  Level Estimated
07:44AM 31.1513 129.4763 198° South  Level Estimated
07:45AM 31.0411 129.4336 198° South  Level Estimated
07:46AM 30.9309 129.3909 198° South  Level Estimated
07:47AM 30.8207 129.3483 198° South  Level Estimated
07:48AM 30.7105 129.3058 198° South  Level Estimated
07:49AM 30.6003 129.2634 198° South  Level Estimated
07:50AM 30.4901 129.2211 198° South  Level Estimated
07:51AM 30.3798 129.1790 198° South  Level Estimated
07:52AM 30.2696 129.1369 198° South  Level Estimated
07:53AM 30.1593 129.0949 198° South  Level Estimated
07:54AM 30.0490 129.0529 198° South  Level Estimated
07:55AM 29.9387 129.0111 198° South  Level Estimated
07:56AM 29.8284 128.9694 198° South  Level Estimated
07:57AM 29.7181 128.9278 198° South  Level Estimated
07:58AM 29.6077 128.8862 198° South  Level Estimated
07:59AM 29.4974 128.8448 198° South  Level Estimated
08:00AM 29.3870 128.8034 198° South  Level Estimated
08:01AM 29.2766 128.7622 198° South  Level Estimated
08:02AM 29.1663 128.7210 198° South  Level Estimated
08:03AM 29.0559 128.6799 198° South  Level Estimated
08:04AM 28.9454 128.6389 198° South  Level Estimated
08:05AM 28.8350 128.5980 198° South  Level Estimated
08:06AM 28.7246 128.5571 198° South  Level Estimated
08:07AM 28.6141 128.5164 198° South  Level Estimated
08:08AM 28.5037 128.4757 198° South  Level Estimated
08:09AM 28.3932 128.4352 198° South  Level Estimated
08:10AM 28.2827 128.3947 198° South  Level Estimated
08:11AM 28.1722 128.3543 198° South  Level Estimated
08:12AM 28.0617 128.3140 198° South  Level Estimated
08:13AM 27.9512 128.2737 198° South  Level Estimated
08:14AM 27.8406 128.2336 198° South  Level Estimated
08:15AM 27.7301 128.1935 198° South  Level Estimated
08:16AM 27.6195 128.1535 198° South  Level Estimated
08:17AM 27.5089 128.1136 198° South  Level Estimated
08:18AM 27.3984 128.0738 198° South  Level Estimated
08:19AM 27.2878 128.0340 198° South  Level Estimated
08:20AM 27.1772 127.9943 198° South  Level Estimated
08:21AM 27.0614 127.9529 198° South  Level Estimated
08:22AM 26.9456 127.9115 198° South  Level Estimated
08:23AM 26.8297 127.8702 198° South  Level Estimated
08:24AM 26.7139 127.8290 198° South  Level Estimated
08:25AM 26.5980 127.7879 198° South  Level Estimated
08:26AM 26.4785 127.7456 198° South  Level Estimated
08:27AM 26.3588 127.7033 198° South  Level Estimated
08:28AM 26.2392 127.6611 198° South  Level Estimated
08:29AM 26.1958 127.6459 198° South  Level Estimated
08:30AM 26.1958 127.6459 347° North  Level Estimated
08:31AM 26.1958 127.6459 347° North  Level Estimated
08:32AM 26.1958 127.6459 347° North  Level Estimated
08:33AM 26.1958 127.6459 347° North  Level Estimated
08:34AM 26.1958 127.6459 347° North  Level Estimated
08:35AM 26.1958 127.6459 347° North  Level Estimated